sensor_id;sensor_type;location;lat;lon;timestamp;pressure;altitude;pressure_sealevel;temperature;humidity
78149;BME280;67396;42.664;23.382;2023-07-29T00:01:32;94802.56;;;20.84;46.06
78149;BME280;67396;42.664;23.382;2023-07-29T00:03:57;94810.88;;;20.75;46.48
78149;BME280;67396;42.664;23.382;2023-07-29T00:06:23;94803.84;;;20.70;46.63
78149;BME280;67396;42.664;23.382;2023-07-29T00:08:49;94814.31;;;20.79;46.13
78149;BME280;67396;42.664;23.382;2023-07-29T00:11:14;94801.13;;;20.79;45.63
78149;BME280;67396;42.664;23.382;2023-07-29T00:13:40;94812.28;;;20.79;46.27
78149;BME280;67396;42.664;23.382;2023-07-29T00:16:05;94808.66;;;20.70;46.73
78149;BME280;67396;42.664;23.382;2023-07-29T00:18:31;94809.75;;;20.50;47.53
78149;BME280;67396;42.664;23.382;2023-07-29T00:20:57;94815.31;;;20.50;48.32
78149;BME280;67396;42.664;23.382;2023-07-29T00:23:23;94809.47;;;20.36;49.71
78149;BME280;67396;42.664;23.382;2023-07-29T00:25:48;94807.22;;;20.43;49.63
78149;BME280;67396;42.664;23.382;2023-07-29T00:28:13;94801.69;;;20.18;50.20
78149;BME280;67396;42.664;23.382;2023-07-29T00:30:39;94808.25;;;20.24;50.41
78149;BME280;67396;42.664;23.382;2023-07-29T00:33:04;94812.44;;;20.07;50.82
78149;BME280;67396;42.664;23.382;2023-07-29T00:35:30;94803.19;;;19.97;50.67
78149;BME280;67396;42.664;23.382;2023-07-29T00:37:55;94805.34;;;19.93;50.83
78149;BME280;67396;42.664;23.382;2023-07-29T00:40:21;94804.94;;;20.16;47.83
78149;BME280;67396;42.664;23.382;2023-07-29T00:42:49;94807.13;;;20.34;47.39
78149;BME280;67396;42.664;23.382;2023-07-29T00:45:15;94803.59;;;20.21;46.01
78149;BME280;67396;42.664;23.382;2023-07-29T00:47:41;94800.13;;;20.17;45.65
78149;BME280;67396;42.664;23.382;2023-07-29T00:50:09;94788.81;;;19.99;47.01
78149;BME280;67396;42.664;23.382;2023-07-29T00:52:34;94791.22;;;19.87;48.23
78149;BME280;67396;42.664;23.382;2023-07-29T00:55:00;94789.41;;;19.81;48.01
78149;BME280;67396;42.664;23.382;2023-07-29T00:57:26;94787.25;;;19.98;47.84
78149;BME280;67396;42.664;23.382;2023-07-29T00:59:53;94792.84;;;19.98;48.50
78149;BME280;67396;42.664;23.382;2023-07-29T01:02:19;94791.75;;;19.82;49.06
78149;BME280;67396;42.664;23.382;2023-07-29T01:04:44;94791.56;;;19.64;49.62
78149;BME280;67396;42.664;23.382;2023-07-29T01:07:35;94787.31;;;19.72;49.20
78149;BME280;67396;42.664;23.382;2023-07-29T01:10:04;94789.34;;;19.59;49.63
78149;BME280;67396;42.664;23.382;2023-07-29T01:15:26;94786.72;;;19.90;47.07
78149;BME280;67396;42.664;23.382;2023-07-29T01:17:58;94790.13;;;20.07;46.24
78149;BME280;67396;42.664;23.382;2023-07-29T01:20:25;94797.00;;;20.27;45.35
78149;BME280;67396;42.664;23.382;2023-07-29T01:22:51;94797.88;;;20.37;45.52
78149;BME280;67396;42.664;23.382;2023-07-29T01:25:17;94791.41;;;20.40;45.28
78149;BME280;67396;42.664;23.382;2023-07-29T01:27:44;94790.22;;;20.50;44.98
78149;BME280;67396;42.664;23.382;2023-07-29T01:30:10;94794.00;;;20.56;44.87
78149;BME280;67396;42.664;23.382;2023-07-29T01:32:40;94788.72;;;20.58;44.44
78149;BME280;67396;42.664;23.382;2023-07-29T01:37:38;94793.34;;;20.52;45.77
78149;BME280;67396;42.664;23.382;2023-07-29T01:40:07;94791.53;;;20.24;46.43
78149;BME280;67396;42.664;23.382;2023-07-29T01:42:33;94789.25;;;19.97;47.41
78149;BME280;67396;42.664;23.382;2023-07-29T01:44:59;94783.97;;;19.77;47.93
78149;BME280;67396;42.664;23.382;2023-07-29T01:47:25;94785.44;;;19.69;48.45
78149;BME280;67396;42.664;23.382;2023-07-29T01:49:51;94789.91;;;19.54;48.47
78149;BME280;67396;42.664;23.382;2023-07-29T01:52:16;94782.63;;;19.44;49.06
78149;BME280;67396;42.664;23.382;2023-07-29T01:54:42;94785.88;;;19.55;48.77
78149;BME280;67396;42.664;23.382;2023-07-29T01:57:07;94784.44;;;19.63;48.50
78149;BME280;67396;42.664;23.382;2023-07-29T01:59:33;94791.50;;;19.89;47.44
78149;BME280;67396;42.664;23.382;2023-07-29T02:01:58;94790.44;;;19.74;47.90
78149;BME280;67396;42.664;23.382;2023-07-29T02:04:23;94793.91;;;19.53;48.53
78149;BME280;67396;42.664;23.382;2023-07-29T02:06:49;94790.19;;;19.81;47.87
78149;BME280;67396;42.664;23.382;2023-07-29T02:09:14;94795.53;;;19.88;47.66
78149;BME280;67396;42.664;23.382;2023-07-29T02:11:40;94798.28;;;20.01;46.94
78149;BME280;67396;42.664;23.382;2023-07-29T02:14:05;94797.88;;;19.90;47.74
78149;BME280;67396;42.664;23.382;2023-07-29T02:16:31;94794.88;;;19.84;48.52
78149;BME280;67396;42.664;23.382;2023-07-29T02:18:57;94792.28;;;19.90;48.70
78149;BME280;67396;42.664;23.382;2023-07-29T02:21:23;94802.66;;;19.89;46.95
78149;BME280;67396;42.664;23.382;2023-07-29T02:23:48;94800.09;;;19.95;45.99
78149;BME280;67396;42.664;23.382;2023-07-29T02:26:14;94799.88;;;19.89;46.44
78149;BME280;67396;42.664;23.382;2023-07-29T02:28:39;94797.78;;;19.81;47.94
78149;BME280;67396;42.664;23.382;2023-07-29T02:31:22;94796.00;;;19.74;47.99
78149;BME280;67396;42.664;23.382;2023-07-29T02:33:48;94800.47;;;19.72;48.30
78149;BME280;67396;42.664;23.382;2023-07-29T02:36:14;94789.66;;;19.86;47.38
78149;BME280;67396;42.664;23.382;2023-07-29T02:38:40;94798.34;;;19.76;47.81
78149;BME280;67396;42.664;23.382;2023-07-29T02:41:06;94790.13;;;19.60;48.13
78149;BME280;67396;42.664;23.382;2023-07-29T02:43:31;94800.31;;;19.88;47.41
78149;BME280;67396;42.664;23.382;2023-07-29T02:45:57;94795.13;;;19.77;51.02
78149;BME280;67396;42.664;23.382;2023-07-29T02:48:22;94797.13;;;19.39;47.72
78149;BME280;67396;42.664;23.382;2023-07-29T02:50:48;94796.47;;;19.47;49.32
78149;BME280;67396;42.664;23.382;2023-07-29T02:53:13;94798.34;;;19.38;48.49
78149;BME280;67396;42.664;23.382;2023-07-29T02:55:42;94795.00;;;19.17;48.94
78149;BME280;67396;42.664;23.382;2023-07-29T02:58:07;94793.00;;;19.18;48.92
78149;BME280;67396;42.664;23.382;2023-07-29T03:00:33;94802.16;;;19.57;48.55
78149;BME280;67396;42.664;23.382;2023-07-29T03:02:59;94801.34;;;19.31;48.61
78149;BME280;67396;42.664;23.382;2023-07-29T03:05:27;94803.69;;;19.32;48.97
78149;BME280;67396;42.664;23.382;2023-07-29T03:07:52;94814.06;;;19.57;48.61
78149;BME280;67396;42.664;23.382;2023-07-29T03:10:17;94813.03;;;19.38;48.89
78149;BME280;67396;42.664;23.382;2023-07-29T03:12:43;94815.25;;;19.18;49.29
78149;BME280;67396;42.664;23.382;2023-07-29T03:15:08;94817.03;;;18.99;50.70
78149;BME280;67396;42.664;23.382;2023-07-29T03:17:34;94827.75;;;18.72;51.78
78149;BME280;67396;42.664;23.382;2023-07-29T03:20:00;94824.16;;;18.59;51.64
78149;BME280;67396;42.664;23.382;2023-07-29T03:22:25;94830.41;;;18.63;51.85
78149;BME280;67396;42.664;23.382;2023-07-29T03:24:50;94831.94;;;19.05;51.11
78149;BME280;67396;42.664;23.382;2023-07-29T03:27:16;94825.28;;;19.28;48.97
78149;BME280;67396;42.664;23.382;2023-07-29T03:29:41;94822.06;;;19.30;50.63
78149;BME280;67396;42.664;23.382;2023-07-29T03:32:07;94818.84;;;19.31;50.36
78149;BME280;67396;42.664;23.382;2023-07-29T03:34:33;94819.13;;;18.95;50.72
78149;BME280;67396;42.664;23.382;2023-07-29T03:36:59;94822.88;;;18.31;52.97
78149;BME280;67396;42.664;23.382;2023-07-29T03:39:24;94826.88;;;18.01;55.14
78149;BME280;67396;42.664;23.382;2023-07-29T03:41:50;94836.69;;;17.89;55.84
78149;BME280;67396;42.664;23.382;2023-07-29T03:44:15;94843.19;;;17.66;57.01
78149;BME280;67396;42.664;23.382;2023-07-29T03:46:40;94833.41;;;17.42;57.80
78149;BME280;67396;42.664;23.382;2023-07-29T03:49:06;94835.88;;;17.40;57.98
78149;BME280;67396;42.664;23.382;2023-07-29T03:51:31;94828.91;;;17.32;58.79
78149;BME280;67396;42.664;23.382;2023-07-29T03:53:57;94836.59;;;17.24;59.11
78149;BME280;67396;42.664;23.382;2023-07-29T03:56:22;94829.84;;;17.25;59.33
78149;BME280;67396;42.664;23.382;2023-07-29T03:58:48;94832.19;;;17.43;57.09
78149;BME280;67396;42.664;23.382;2023-07-29T04:01:14;94823.75;;;17.83;54.77
78149;BME280;67396;42.664;23.382;2023-07-29T04:03:40;94819.41;;;17.98;54.22
78149;BME280;67396;42.664;23.382;2023-07-29T04:06:05;94823.31;;;18.00;53.47
78149;BME280;67396;42.664;23.382;2023-07-29T04:08:31;94824.50;;;18.45;52.52
78149;BME280;67396;42.664;23.382;2023-07-29T04:10:56;94836.69;;;18.92;50.68
78149;BME280;67396;42.664;23.382;2023-07-29T04:13:22;94832.28;;;19.07;50.07
78149;BME280;67396;42.664;23.382;2023-07-29T04:15:48;94836.19;;;19.23;49.24
78149;BME280;67396;42.664;23.382;2023-07-29T04:18:16;94829.91;;;19.60;48.20
78149;BME280;67396;42.664;23.382;2023-07-29T04:20:41;94838.31;;;19.95;48.06
78149;BME280;67396;42.664;23.382;2023-07-29T04:23:07;94840.63;;;20.21;47.45
78149;BME280;67396;42.664;23.382;2023-07-29T04:25:33;94839.19;;;20.51;46.34
78149;BME280;67396;42.664;23.382;2023-07-29T04:27:58;94837.47;;;20.67;45.84
78149;BME280;67396;42.664;23.382;2023-07-29T04:30:24;94834.22;;;20.90;45.50
78149;BME280;67396;42.664;23.382;2023-07-29T04:32:49;94833.06;;;21.00;45.17
78149;BME280;67396;42.664;23.382;2023-07-29T04:35:15;94834.75;;;20.97;45.11
78149;BME280;67396;42.664;23.382;2023-07-29T04:37:41;94833.91;;;20.88;45.91
78149;BME280;67396;42.664;23.382;2023-07-29T04:40:06;94836.69;;;21.10;45.79
78149;BME280;67396;42.664;23.382;2023-07-29T04:42:32;94838.38;;;21.07;46.38
78149;BME280;67396;42.664;23.382;2023-07-29T04:44:58;94847.97;;;21.06;47.18
78149;BME280;67396;42.664;23.382;2023-07-29T04:47:23;94836.53;;;21.13;47.68
78149;BME280;67396;42.664;23.382;2023-07-29T04:49:49;94842.41;;;21.28;46.80
78149;BME280;67396;42.664;23.382;2023-07-29T04:52:14;94838.97;;;21.24;46.23
78149;BME280;67396;42.664;23.382;2023-07-29T04:54:41;94839.47;;;20.66;47.74
78149;BME280;67396;42.664;23.382;2023-07-29T04:57:06;94847.31;;;20.58;48.63
78149;BME280;67396;42.664;23.382;2023-07-29T04:59:32;94844.84;;;20.60;48.32
78149;BME280;67396;42.664;23.382;2023-07-29T05:01:57;94853.88;;;20.86;47.88
78149;BME280;67396;42.664;23.382;2023-07-29T05:04:23;94854.47;;;21.25;46.89
78149;BME280;67396;42.664;23.382;2023-07-29T05:06:48;94851.91;;;21.39;46.50
78149;BME280;67396;42.664;23.382;2023-07-29T05:09:15;94853.81;;;20.99;48.92
78149;BME280;67396;42.664;23.382;2023-07-29T05:11:42;94855.91;;;21.08;48.29
78149;BME280;67396;42.664;23.382;2023-07-29T05:14:08;94851.75;;;20.90;48.96
78149;BME280;67396;42.664;23.382;2023-07-29T05:16:34;94859.66;;;20.92;48.38
78149;BME280;67396;42.664;23.382;2023-07-29T05:19:00;94854.88;;;20.92;48.46
78149;BME280;67396;42.664;23.382;2023-07-29T05:21:26;94859.94;;;21.28;48.28
78149;BME280;67396;42.664;23.382;2023-07-29T05:23:51;94860.63;;;21.42;47.67
78149;BME280;67396;42.664;23.382;2023-07-29T05:26:17;94862.56;;;21.54;47.70
78149;BME280;67396;42.664;23.382;2023-07-29T05:28:42;94869.00;;;21.42;48.68
78149;BME280;67396;42.664;23.382;2023-07-29T05:31:07;94868.38;;;21.47;47.83
78149;BME280;67396;42.664;23.382;2023-07-29T05:33:33;94875.34;;;21.73;47.52
78149;BME280;67396;42.664;23.382;2023-07-29T05:35:58;94869.34;;;21.84;47.38
78149;BME280;67396;42.664;23.382;2023-07-29T05:38:24;94872.25;;;21.71;47.36
78149;BME280;67396;42.664;23.382;2023-07-29T05:40:49;94873.84;;;21.81;47.09
78149;BME280;67396;42.664;23.382;2023-07-29T05:43:14;94874.56;;;22.03;46.89
78149;BME280;67396;42.664;23.382;2023-07-29T05:45:40;94877.31;;;22.71;44.55
78149;BME280;67396;42.664;23.382;2023-07-29T05:48:07;94870.66;;;22.96;43.79
78149;BME280;67396;42.664;23.382;2023-07-29T05:50:32;94874.38;;;23.20;42.84
78149;BME280;67396;42.664;23.382;2023-07-29T05:52:58;94879.03;;;23.14;43.05
78149;BME280;67396;42.664;23.382;2023-07-29T05:55:23;94873.59;;;23.29;43.28
78149;BME280;67396;42.664;23.382;2023-07-29T05:57:48;94873.69;;;23.61;42.48
78149;BME280;67396;42.664;23.382;2023-07-29T06:00:14;94871.19;;;23.73;42.34
78149;BME280;67396;42.664;23.382;2023-07-29T06:02:39;94866.53;;;23.60;42.90
78149;BME280;67396;42.664;23.382;2023-07-29T06:05:08;94869.00;;;23.68;42.36
78149;BME280;67396;42.664;23.382;2023-07-29T06:07:34;94870.47;;;23.87;42.14
78149;BME280;67396;42.664;23.382;2023-07-29T06:10:00;94870.47;;;24.20;40.84
78149;BME280;67396;42.664;23.382;2023-07-29T06:12:25;94864.75;;;24.47;40.00
78149;BME280;67396;42.664;23.382;2023-07-29T06:14:51;94866.44;;;24.54;40.23
78149;BME280;67396;42.664;23.382;2023-07-29T06:17:17;94863.69;;;24.45;40.90
78149;BME280;67396;42.664;23.382;2023-07-29T06:19:43;94867.81;;;24.73;39.59
78149;BME280;67396;42.664;23.382;2023-07-29T06:22:11;94859.41;;;24.97;38.70
78149;BME280;67396;42.664;23.382;2023-07-29T06:24:36;94862.53;;;25.14;38.27
78149;BME280;67396;42.664;23.382;2023-07-29T06:27:02;94857.31;;;25.36;38.30
78149;BME280;67396;42.664;23.382;2023-07-29T06:29:28;94853.63;;;25.44;37.74
78149;BME280;67396;42.664;23.382;2023-07-29T06:31:53;94864.28;;;25.26;39.39
78149;BME280;67396;42.664;23.382;2023-07-29T06:34:20;94845.88;;;25.54;37.97
78149;BME280;67396;42.664;23.382;2023-07-29T06:36:45;94853.34;;;25.42;38.75
78149;BME280;67396;42.664;23.382;2023-07-29T06:39:11;94853.66;;;25.30;38.70
78149;BME280;67396;42.664;23.382;2023-07-29T06:41:36;94844.25;;;25.33;38.65
78149;BME280;67396;42.664;23.382;2023-07-29T06:44:03;94844.69;;;25.17;38.83
78149;BME280;67396;42.664;23.382;2023-07-29T06:46:29;94846.97;;;25.57;37.07
78149;BME280;67396;42.664;23.382;2023-07-29T06:48:54;94842.13;;;25.72;37.16
78149;BME280;67396;42.664;23.382;2023-07-29T06:51:20;94838.94;;;26.14;36.16
78149;BME280;67396;42.664;23.382;2023-07-29T06:53:45;94845.03;;;26.12;35.62
78149;BME280;67396;42.664;23.382;2023-07-29T06:56:10;94843.66;;;26.37;34.76
78149;BME280;67396;42.664;23.382;2023-07-29T06:58:36;94839.16;;;26.45;34.26
78149;BME280;67396;42.664;23.382;2023-07-29T07:01:01;94842.38;;;26.58;33.99
78149;BME280;67396;42.664;23.382;2023-07-29T07:03:28;94843.44;;;26.61;33.47
78149;BME280;67396;42.664;23.382;2023-07-29T07:05:54;94839.31;;;26.97;33.65
78149;BME280;67396;42.664;23.382;2023-07-29T07:08:19;94840.28;;;26.94;33.66
78149;BME280;67396;42.664;23.382;2023-07-29T07:10:46;94836.56;;;27.28;33.12
78149;BME280;67396;42.664;23.382;2023-07-29T07:13:12;94841.75;;;27.35;33.92
78149;BME280;67396;42.664;23.382;2023-07-29T07:15:37;94828.03;;;27.49;33.37
78149;BME280;67396;42.664;23.382;2023-07-29T07:18:03;94842.09;;;27.43;33.20
78149;BME280;67396;42.664;23.382;2023-07-29T07:20:28;94838.16;;;27.87;32.52
78149;BME280;67396;42.664;23.382;2023-07-29T07:22:54;94834.81;;;28.20;32.59
78149;BME280;67396;42.664;23.382;2023-07-29T07:25:20;94843.00;;;27.55;33.72
78149;BME280;67396;42.664;23.382;2023-07-29T07:27:46;94835.56;;;27.31;34.38
78149;BME280;67396;42.664;23.382;2023-07-29T07:30:11;94831.00;;;27.34;33.89
78149;BME280;67396;42.664;23.382;2023-07-29T07:32:37;94835.31;;;27.09;34.34
78149;BME280;67396;42.664;23.382;2023-07-29T07:35:03;94830.75;;;27.38;34.13
78149;BME280;67396;42.664;23.382;2023-07-29T07:37:29;94835.19;;;27.70;33.42
78149;BME280;67396;42.664;23.382;2023-07-29T07:39:55;94817.53;;;27.49;33.32
78149;BME280;67396;42.664;23.382;2023-07-29T07:42:20;94834.69;;;27.20;34.66
78149;BME280;67396;42.664;23.382;2023-07-29T07:44:46;94826.91;;;26.89;34.77
78149;BME280;67396;42.664;23.382;2023-07-29T07:47:11;94831.25;;;27.10;34.97
78149;BME280;67396;42.664;23.382;2023-07-29T07:49:36;94828.03;;;27.75;32.81
78149;BME280;67396;42.664;23.382;2023-07-29T07:52:02;94826.81;;;27.81;32.10
78149;BME280;67396;42.664;23.382;2023-07-29T07:54:27;94834.25;;;27.53;33.46
78149;BME280;67396;42.664;23.382;2023-07-29T07:56:53;94828.25;;;27.71;32.83
78149;BME280;67396;42.664;23.382;2023-07-29T07:59:18;94830.66;;;27.78;32.79
78149;BME280;67396;42.664;23.382;2023-07-29T08:01:44;94830.94;;;28.17;32.46
78149;BME280;67396;42.664;23.382;2023-07-29T08:04:09;94825.91;;;27.95;32.87
78149;BME280;67396;42.664;23.382;2023-07-29T08:06:34;94837.81;;;28.11;32.56
78149;BME280;67396;42.664;23.382;2023-07-29T08:09:01;94834.69;;;28.40;32.28
78149;BME280;67396;42.664;23.382;2023-07-29T08:11:26;94826.28;;;28.14;32.19
78149;BME280;67396;42.664;23.382;2023-07-29T08:13:52;94838.69;;;27.91;32.12
78149;BME280;67396;42.664;23.382;2023-07-29T08:16:17;94829.53;;;28.01;31.43
78149;BME280;67396;42.664;23.382;2023-07-29T08:18:43;94830.13;;;28.11;31.74
78149;BME280;67396;42.664;23.382;2023-07-29T08:21:09;94840.06;;;28.38;31.51
78149;BME280;67396;42.664;23.382;2023-07-29T08:23:35;94835.59;;;28.68;30.26
78149;BME280;67396;42.664;23.382;2023-07-29T08:26:04;94832.72;;;29.11;30.22
78149;BME280;67396;42.664;23.382;2023-07-29T08:28:36;94829.28;;;28.85;30.25
78149;BME280;67396;42.664;23.382;2023-07-29T08:31:03;94831.63;;;28.92;30.27
78149;BME280;67396;42.664;23.382;2023-07-29T08:33:28;94827.09;;;29.33;29.05
78149;BME280;67396;42.664;23.382;2023-07-29T08:35:55;94824.06;;;29.42;29.28
78149;BME280;67396;42.664;23.382;2023-07-29T08:38:21;94819.69;;;29.47;28.47
78149;BME280;67396;42.664;23.382;2023-07-29T08:43:39;94815.75;;;29.22;29.17
78149;BME280;67396;42.664;23.382;2023-07-29T08:46:06;94815.25;;;29.29;29.22
78149;BME280;67396;42.664;23.382;2023-07-29T08:48:42;94805.84;;;29.54;29.21
78149;BME280;67396;42.664;23.382;2023-07-29T08:51:09;94808.91;;;29.79;28.42
78149;BME280;67396;42.664;23.382;2023-07-29T08:53:36;94798.84;;;28.57;29.83
78149;BME280;67396;42.664;23.382;2023-07-29T08:56:02;94804.50;;;28.63;29.52
78149;BME280;67396;42.664;23.382;2023-07-29T08:58:28;94804.69;;;28.48;29.30
78149;BME280;67396;42.664;23.382;2023-07-29T09:00:54;94799.09;;;28.59;29.53
78149;BME280;67396;42.664;23.382;2023-07-29T09:03:20;94801.13;;;29.24;28.18
78149;BME280;67396;42.664;23.382;2023-07-29T09:05:47;94798.38;;;29.46;26.15
78149;BME280;67396;42.664;23.382;2023-07-29T09:08:13;94793.72;;;29.93;24.70
78149;BME280;67396;42.664;23.382;2023-07-29T09:10:39;94793.22;;;29.78;25.02
78149;BME280;67396;42.664;23.382;2023-07-29T09:13:05;94795.78;;;29.87;25.28
78149;BME280;67396;42.664;23.382;2023-07-29T09:15:33;94797.59;;;30.12;25.20
78149;BME280;67396;42.664;23.382;2023-07-29T09:18:09;94790.03;;;30.54;23.80
78149;BME280;67396;42.664;23.382;2023-07-29T09:20:34;94789.03;;;30.35;22.27
78149;BME280;67396;42.664;23.382;2023-07-29T09:23:00;94782.84;;;30.36;23.27
78149;BME280;67396;42.664;23.382;2023-07-29T09:25:27;94783.81;;;30.61;24.00
78149;BME280;67396;42.664;23.382;2023-07-29T09:27:59;94787.22;;;30.43;25.03
78149;BME280;67396;42.664;23.382;2023-07-29T09:30:25;94776.69;;;30.38;24.47
78149;BME280;67396;42.664;23.382;2023-07-29T09:32:57;94778.19;;;30.44;24.02
78149;BME280;67396;42.664;23.382;2023-07-29T09:35:26;94766.09;;;30.60;23.67
78149;BME280;67396;42.664;23.382;2023-07-29T09:37:51;94773.91;;;30.95;22.54
78149;BME280;67396;42.664;23.382;2023-07-29T09:40:18;94778.41;;;30.69;22.31
78149;BME280;67396;42.664;23.382;2023-07-29T09:42:54;94771.75;;;30.49;22.58
78149;BME280;67396;42.664;23.382;2023-07-29T09:45:24;94762.66;;;30.73;22.62
78149;BME280;67396;42.664;23.382;2023-07-29T09:47:51;94760.44;;;30.49;23.03
78149;BME280;67396;42.664;23.382;2023-07-29T09:50:17;94771.81;;;30.33;22.97
78149;BME280;67396;42.664;23.382;2023-07-29T09:52:43;94758.09;;;30.59;22.42
78149;BME280;67396;42.664;23.382;2023-07-29T09:55:13;94760.94;;;30.48;22.79
78149;BME280;67396;42.664;23.382;2023-07-29T09:57:43;94756.25;;;30.67;22.67
78149;BME280;67396;42.664;23.382;2023-07-29T10:00:10;94753.47;;;30.45;22.89
78149;BME280;67396;42.664;23.382;2023-07-29T10:02:43;94756.16;;;30.09;23.63
78149;BME280;67396;42.664;23.382;2023-07-29T10:05:10;94754.81;;;30.33;23.06
78149;BME280;67396;42.664;23.382;2023-07-29T10:07:39;94752.44;;;30.48;22.81
78149;BME280;67396;42.664;23.382;2023-07-29T10:10:06;94750.13;;;30.46;23.09
78149;BME280;67396;42.664;23.382;2023-07-29T10:12:33;94747.31;;;30.52;23.14
78149;BME280;67396;42.664;23.382;2023-07-29T10:15:03;94750.16;;;30.52;23.38
78149;BME280;67396;42.664;23.382;2023-07-29T10:17:30;94749.09;;;30.60;23.14
78149;BME280;67396;42.664;23.382;2023-07-29T10:19:56;94738.84;;;30.29;23.35
78149;BME280;67396;42.664;23.382;2023-07-29T10:22:25;94746.91;;;29.47;24.36
78149;BME280;67396;42.664;23.382;2023-07-29T10:24:56;94724.81;;;29.51;24.14
78149;BME280;67396;42.664;23.382;2023-07-29T10:27:27;94710.16;;;29.59;24.95
78149;BME280;67396;42.664;23.382;2023-07-29T10:29:55;94718.56;;;29.03;26.32
78149;BME280;67396;42.664;23.382;2023-07-29T10:32:25;94711.41;;;29.02;26.00
78149;BME280;67396;42.664;23.382;2023-07-29T10:34:50;94713.19;;;29.05;25.97
78149;BME280;67396;42.664;23.382;2023-07-29T10:37:16;94707.56;;;29.10;25.98
78149;BME280;67396;42.664;23.382;2023-07-29T10:39:53;94707.03;;;29.01;25.77
78149;BME280;67396;42.664;23.382;2023-07-29T10:42:19;94700.84;;;28.91;26.00
78149;BME280;67396;42.664;23.382;2023-07-29T10:44:51;94701.09;;;28.88;25.42
78149;BME280;67396;42.664;23.382;2023-07-29T10:47:28;94699.31;;;28.96;25.34
78149;BME280;67396;42.664;23.382;2023-07-29T10:49:58;94699.84;;;29.00;24.81
78149;BME280;67396;42.664;23.382;2023-07-29T10:55:01;94697.75;;;28.84;24.73
78149;BME280;67396;42.664;23.382;2023-07-29T10:57:32;94695.88;;;28.69;24.74
78149;BME280;67396;42.664;23.382;2023-07-29T10:59:58;94685.88;;;28.68;24.33
78149;BME280;67396;42.664;23.382;2023-07-29T11:02:40;94682.81;;;28.72;24.24
78149;BME280;67396;42.664;23.382;2023-07-29T11:05:18;94674.06;;;28.70;24.37
78149;BME280;67396;42.664;23.382;2023-07-29T11:07:45;94679.16;;;28.55;24.51
78149;BME280;67396;42.664;23.382;2023-07-29T11:10:12;94674.25;;;28.44;24.78
78149;BME280;67396;42.664;23.382;2023-07-29T11:12:46;94667.88;;;28.49;24.84
78149;BME280;67396;42.664;23.382;2023-07-29T11:15:23;94669.66;;;28.52;25.03
78149;BME280;67396;42.664;23.382;2023-07-29T11:18:01;94668.41;;;28.64;24.68
78149;BME280;67396;42.664;23.382;2023-07-29T11:20:28;94666.09;;;28.68;24.55
78149;BME280;67396;42.664;23.382;2023-07-29T11:22:59;94670.47;;;28.69;24.39
78149;BME280;67396;42.664;23.382;2023-07-29T11:25:30;94671.97;;;28.48;24.26
78149;BME280;67396;42.664;23.382;2023-07-29T11:28:02;94666.56;;;28.50;24.37
78149;BME280;67396;42.664;23.382;2023-07-29T11:35:19;94662.97;;;28.44;24.69
78149;BME280;67396;42.664;23.382;2023-07-29T11:37:49;94664.81;;;28.58;24.29
78149;BME280;67396;42.664;23.382;2023-07-29T11:40:15;94655.84;;;28.65;24.27
78149;BME280;67396;42.664;23.382;2023-07-29T11:42:41;94655.06;;;28.65;24.26
78149;BME280;67396;42.664;23.382;2023-07-29T11:45:07;94654.28;;;28.64;24.32
78149;BME280;67396;42.664;23.382;2023-07-29T11:47:34;94650.19;;;28.71;24.53
78149;BME280;67396;42.664;23.382;2023-07-29T11:50:08;94646.31;;;28.68;24.88
78149;BME280;67396;42.664;23.382;2023-07-29T11:52:38;94648.38;;;28.62;24.63
78149;BME280;67396;42.664;23.382;2023-07-29T11:55:05;94647.06;;;28.47;25.57
78149;BME280;67396;42.664;23.382;2023-07-29T11:57:34;94630.88;;;28.53;25.34
78149;BME280;67396;42.664;23.382;2023-07-29T12:00:02;94635.78;;;28.58;25.99
78149;BME280;67396;42.664;23.382;2023-07-29T12:02:29;94642.22;;;28.64;25.72
78149;BME280;67396;42.664;23.382;2023-07-29T12:04:56;94636.25;;;28.45;26.04
78149;BME280;67396;42.664;23.382;2023-07-29T12:07:22;94634.47;;;28.53;25.63
78149;BME280;67396;42.664;23.382;2023-07-29T12:09:53;94632.69;;;28.61;24.78
78149;BME280;67396;42.664;23.382;2023-07-29T12:12:18;94633.50;;;28.67;24.65
78149;BME280;67396;42.664;23.382;2023-07-29T12:14:45;94629.13;;;28.72;24.29
78149;BME280;67396;42.664;23.382;2023-07-29T12:17:11;94621.94;;;28.76;24.02
78149;BME280;67396;42.664;23.382;2023-07-29T12:19:38;94630.94;;;28.75;24.07
78149;BME280;67396;42.664;23.382;2023-07-29T12:22:05;94626.59;;;28.79;24.31
78149;BME280;67396;42.664;23.382;2023-07-29T12:24:33;94616.84;;;28.80;23.93
78149;BME280;67396;42.664;23.382;2023-07-29T12:27:00;94617.59;;;28.81;24.10
78149;BME280;67396;42.664;23.382;2023-07-29T12:29:26;94614.03;;;28.92;23.54
78149;BME280;67396;42.664;23.382;2023-07-29T12:32:00;94617.63;;;28.92;23.25
78149;BME280;67396;42.664;23.382;2023-07-29T12:34:27;94611.97;;;28.98;22.49
78149;BME280;67396;42.664;23.382;2023-07-29T12:36:57;94609.91;;;28.98;22.91
78149;BME280;67396;42.664;23.382;2023-07-29T12:39:28;94607.34;;;29.00;23.15
78149;BME280;67396;42.664;23.382;2023-07-29T12:41:54;94605.00;;;29.04;23.11
78149;BME280;67396;42.664;23.382;2023-07-29T12:44:20;94607.59;;;29.02;23.21
78149;BME280;67396;42.664;23.382;2023-07-29T12:46:45;94612.72;;;29.04;23.21
78149;BME280;67396;42.664;23.382;2023-07-29T12:49:11;94602.97;;;29.10;23.19
78149;BME280;67396;42.664;23.382;2023-07-29T12:51:37;94603.22;;;29.12;22.96
78149;BME280;67396;42.664;23.382;2023-07-29T12:54:04;94607.06;;;29.15;22.71
78149;BME280;67396;42.664;23.382;2023-07-29T12:56:30;94602.19;;;29.15;22.87
78149;BME280;67396;42.664;23.382;2023-07-29T12:58:57;94598.56;;;29.20;22.52
78149;BME280;67396;42.664;23.382;2023-07-29T13:01:23;94601.69;;;29.17;22.48
78149;BME280;67396;42.664;23.382;2023-07-29T13:03:48;94603.47;;;29.20;22.59